createdAt,value
2023-03-22T00:01:37.753Z,9.70
2023-03-22T00:06:41.562Z,9.70
2023-03-22T00:11:44.776Z,9.80
2023-03-22T00:16:49.994Z,9.80
2023-03-22T00:21:53.244Z,9.70
2023-03-22T00:26:56.622Z,9.60
2023-03-22T00:32:01.348Z,9.60
2023-03-22T00:37:05.066Z,9.30
2023-03-22T00:42:08.833Z,9.20
2023-03-22T00:47:14.629Z,9.20
2023-03-22T00:52:18.418Z,9.10
2023-03-22T00:57:21.814Z,9.00
2023-03-22T01:02:29.751Z,9.00
2023-03-22T01:07:33.552Z,9.10
2023-03-22T01:12:40.616Z,9.10
2023-03-22T01:17:49.106Z,9.00
2023-03-22T01:22:52.546Z,9.00
2023-03-22T01:27:56.041Z,9.00
2023-03-22T01:33:00.754Z,9.00
2023-03-22T01:38:04.617Z,9.10
2023-03-22T01:43:13.520Z,9.20
2023-03-22T01:48:27.742Z,9.20
2023-03-22T01:53:34.788Z,9.20
2023-03-22T01:58:43.347Z,9.20
2023-03-22T02:03:54.255Z,9.10
2023-03-22T02:08:59.427Z,9.00
2023-03-22T02:14:23.491Z,8.90
2023-03-22T02:20:45.268Z,8.80
2023-03-22T02:26:24.669Z,8.70
2023-03-22T02:31:53.963Z,8.70
2023-03-22T02:37:16.994Z,8.70
2023-03-22T02:42:42.094Z,8.70
2023-03-22T02:47:55.720Z,8.80
2023-03-22T02:53:06.334Z,8.80
2023-03-22T02:58:18.101Z,8.80
2023-03-22T03:03:25.871Z,8.80
2023-03-22T03:08:30.796Z,9.00
2023-03-22T03:13:38.303Z,9.10
2023-03-22T03:18:49.386Z,9.20
2023-03-22T03:23:59.377Z,9.30
2023-03-22T03:29:11.824Z,9.30
2023-03-22T03:34:21.048Z,9.30
2023-03-22T03:39:27.784Z,9.40
2023-03-22T03:44:34.257Z,9.40
2023-03-22T03:49:37.652Z,9.40
2023-03-22T03:54:43.131Z,9.30
2023-03-22T03:59:52.997Z,9.30
2023-03-22T04:05:17.560Z,9.40
2023-03-22T04:10:21.781Z,9.40
2023-03-22T04:15:26.976Z,9.40
2023-03-22T04:20:34.000Z,9.50
2023-03-22T04:25:38.040Z,9.50
2023-03-22T04:30:52.053Z,9.40
2023-03-22T04:36:17.712Z,9.30
2023-03-22T04:41:40.242Z,9.30
2023-03-22T04:46:45.781Z,9.20
2023-03-22T04:51:49.759Z,9.10
2023-03-22T04:57:06.508Z,9.00
2023-03-22T05:02:17.728Z,9.00
2023-03-22T05:07:23.704Z,9.00
2023-03-22T05:12:31.333Z,8.90
2023-03-22T05:17:42.257Z,9.00
2023-03-22T05:22:51.038Z,8.90
2023-03-22T05:28:01.725Z,8.90
2023-03-22T05:33:22.189Z,8.90
2023-03-22T05:38:29.825Z,9.00
2023-03-22T05:43:36.418Z,9.10
2023-03-22T05:48:42.584Z,9.20
2023-03-22T05:53:47.597Z,9.20
2023-03-22T05:58:55.200Z,9.30
2023-03-22T06:04:01.398Z,9.40
2023-03-22T06:09:17.395Z,9.40
2023-03-22T06:14:26.340Z,9.50
2023-03-22T06:19:44.070Z,9.70
2023-03-22T06:24:50.388Z,9.90
2023-03-22T06:30:02.301Z,10.10
2023-03-22T06:35:11.039Z,10.20
2023-03-22T06:40:15.027Z,10.20
2023-03-22T06:45:19.259Z,10.30
2023-03-22T06:50:24.632Z,10.40
2023-03-22T06:55:44.663Z,10.60
2023-03-22T07:00:54.006Z,10.90
2023-03-22T07:06:04.282Z,11.10
2023-03-22T07:11:09.760Z,11.30
2023-03-22T07:16:14.511Z,11.40
2023-03-22T07:21:27.709Z,11.60
2023-03-22T07:26:36.129Z,11.90
2023-03-22T07:31:40.633Z,12.10
2023-03-22T07:36:49.431Z,12.40
2023-03-22T07:41:53.036Z,12.50
2023-03-22T07:46:56.907Z,12.30
2023-03-22T07:52:08.973Z,12.20
2023-03-22T07:57:12.629Z,12.40
2023-03-22T08:02:22.275Z,12.60
2023-03-22T08:07:32.011Z,12.60
2023-03-22T08:12:36.531Z,12.70
2023-03-22T08:18:00.794Z,13.20
2023-03-22T08:23:15.798Z,13.50
2023-03-22T08:28:37.706Z,13.60
2023-03-22T08:33:42.180Z,13.80
2023-03-22T08:38:47.275Z,14.20
2023-03-22T08:43:53.746Z,14.00
2023-03-22T08:49:00.402Z,14.00
2023-03-22T08:54:12.523Z,14.10
2023-03-22T08:59:34.217Z,14.20
2023-03-22T09:05:13.895Z,14.40
2023-03-22T09:10:20.961Z,14.60
2023-03-22T09:15:26.410Z,14.90
2023-03-22T09:20:46.561Z,15.30
2023-03-22T09:25:55.465Z,15.50
2023-03-22T09:31:02.568Z,15.70
2023-03-22T09:36:07.157Z,15.80
2023-03-22T09:41:17.101Z,16.10
2023-03-22T09:46:28.299Z,16.20
2023-03-22T09:51:39.743Z,16.20
2023-03-22T09:56:49.156Z,16.20
2023-03-22T10:01:57.881Z,16.50
2023-03-22T10:07:08.582Z,16.90
2023-03-22T10:12:20.926Z,17.40
2023-03-22T10:17:27.512Z,17.80
2023-03-22T10:22:34.819Z,18.00
2023-03-22T10:27:39.557Z,17.80
2023-03-22T10:32:57.162Z,17.60
2023-03-22T10:38:05.704Z,17.60
2023-03-22T10:43:21.566Z,17.80
2023-03-22T10:48:30.015Z,17.80
2023-03-22T10:53:40.027Z,17.70
2023-03-22T10:58:44.644Z,17.90
2023-03-22T11:03:51.973Z,18.00
2023-03-22T11:08:58.797Z,17.80
2023-03-22T11:14:08.149Z,18.30
2023-03-22T11:19:18.302Z,18.50
2023-03-22T11:24:22.774Z,18.90
2023-03-22T11:29:27.506Z,18.50
2023-03-22T11:34:32.915Z,18.40
2023-03-22T11:39:36.274Z,18.40
2023-03-22T11:44:40.968Z,18.30
2023-03-22T11:49:48.831Z,18.30
2023-03-22T11:54:54.177Z,18.60
2023-03-22T12:00:07.138Z,19.00
2023-03-22T12:05:20.094Z,19.10
2023-03-22T12:10:29.192Z,19.10
2023-03-22T12:15:38.204Z,19.40
2023-03-22T12:20:46.667Z,19.40
2023-03-22T12:25:52.819Z,19.00
2023-03-22T12:30:58.557Z,18.50
2023-03-22T12:36:05.744Z,18.50
2023-03-22T12:41:13.226Z,18.70
2023-03-22T12:46:20.938Z,18.90
2023-03-22T12:51:24.300Z,19.20
2023-03-22T12:56:31.882Z,19.20
2023-03-22T13:01:41.032Z,19.30
2023-03-22T13:06:57.560Z,19.30
2023-03-22T13:12:30.152Z,19.40
2023-03-22T13:17:47.251Z,19.30
2023-03-22T13:23:13.074Z,19.00
2023-03-22T13:28:27.312Z,18.90
2023-03-22T13:33:34.710Z,18.90
2023-03-22T13:38:42.646Z,18.80
2023-03-22T13:43:50.230Z,18.90
2023-03-22T13:49:13.838Z,19.10
2023-03-22T13:54:24.629Z,18.80
2023-03-22T13:59:33.757Z,18.70
2023-03-22T14:04:44.245Z,18.70
2023-03-22T14:09:51.809Z,18.70
2023-03-22T14:14:59.093Z,18.60
2023-03-22T14:20:08.360Z,18.40
